sensor_id;sensor_type;location;lat;lon;timestamp;P1;durP1;ratioP1;P2;durP2;ratioP2
12990;SDS011;6560;57.692;11.958;2022-11-04T00:01:17;3.13;;;2.40;;
12990;SDS011;6560;57.692;11.958;2022-11-04T00:03:43;8.40;;;2.33;;
12990;SDS011;6560;57.692;11.958;2022-11-04T00:06:09;6.17;;;2.57;;
12990;SDS011;6560;57.692;11.958;2022-11-04T00:08:35;5.47;;;2.57;;
12990;SDS011;6560;57.692;11.958;2022-11-04T00:11:00;10.53;;;2.23;;
12990;SDS011;6560;57.692;11.958;2022-11-04T00:13:45;6.83;;;2.33;;
12990;SDS011;6560;57.692;11.958;2022-11-04T00:16:11;7.37;;;2.63;;
12990;SDS011;6560;57.692;11.958;2022-11-04T00:18:56;5.90;;;2.00;;
12990;SDS011;6560;57.692;11.958;2022-11-04T00:21:23;6.33;;;2.17;;
12990;SDS011;6560;57.692;11.958;2022-11-04T00:24:07;7.23;;;2.57;;
12990;SDS011;6560;57.692;11.958;2022-11-04T00:26:53;6.20;;;2.60;;
12990;SDS011;6560;57.692;11.958;2022-11-04T00:29:37;5.87;;;2.47;;
12990;SDS011;6560;57.692;11.958;2022-11-04T00:32:03;5.07;;;2.37;;
12990;SDS011;6560;57.692;11.958;2022-11-04T00:34:47;5.03;;;2.80;;
12990;SDS011;6560;57.692;11.958;2022-11-04T00:37:12;9.57;;;3.13;;
12990;SDS011;6560;57.692;11.958;2022-11-04T00:39:38;6.43;;;2.97;;
12990;SDS011;6560;57.692;11.958;2022-11-04T00:42:03;5.83;;;3.47;;
12990;SDS011;6560;57.692;11.958;2022-11-04T00:44:29;8.80;;;2.77;;
12990;SDS011;6560;57.692;11.958;2022-11-04T00:46:54;8.50;;;2.97;;
12990;SDS011;6560;57.692;11.958;2022-11-04T00:49:19;5.30;;;3.10;;
12990;SDS011;6560;57.692;11.958;2022-11-04T00:51:45;6.47;;;2.57;;
12990;SDS011;6560;57.692;11.958;2022-11-04T00:54:10;8.67;;;2.93;;
12990;SDS011;6560;57.692;11.958;2022-11-04T00:56:36;7.30;;;2.87;;
12990;SDS011;6560;57.692;11.958;2022-11-04T00:59:02;6.63;;;2.90;;
12990;SDS011;6560;57.692;11.958;2022-11-04T01:01:28;6.17;;;2.53;;
12990;SDS011;6560;57.692;11.958;2022-11-04T01:03:53;10.53;;;3.37;;
12990;SDS011;6560;57.692;11.958;2022-11-04T01:06:20;10.30;;;3.03;;
12990;SDS011;6560;57.692;11.958;2022-11-04T01:08:47;9.37;;;3.47;;
12990;SDS011;6560;57.692;11.958;2022-11-04T01:11:14;5.77;;;2.80;;
12990;SDS011;6560;57.692;11.958;2022-11-04T01:13:40;5.80;;;3.47;;
12990;SDS011;6560;57.692;11.958;2022-11-04T01:16:07;7.37;;;2.73;;
12990;SDS011;6560;57.692;11.958;2022-11-04T01:18:35;7.77;;;3.73;;
12990;SDS011;6560;57.692;11.958;2022-11-04T01:21:01;7.90;;;2.60;;
12990;SDS011;6560;57.692;11.958;2022-11-04T01:23:30;5.37;;;2.90;;
12990;SDS011;6560;57.692;11.958;2022-11-04T01:25:58;7.93;;;3.20;;
12990;SDS011;6560;57.692;11.958;2022-11-04T01:28:23;5.80;;;3.43;;
12990;SDS011;6560;57.692;11.958;2022-11-04T01:30:49;9.13;;;3.47;;
12990;SDS011;6560;57.692;11.958;2022-11-04T01:33:14;7.40;;;3.63;;
12990;SDS011;6560;57.692;11.958;2022-11-04T01:35:40;4.23;;;2.70;;
12990;SDS011;6560;57.692;11.958;2022-11-04T01:38:05;10.07;;;3.40;;
12990;SDS011;6560;57.692;11.958;2022-11-04T01:40:34;8.53;;;3.63;;
12990;SDS011;6560;57.692;11.958;2022-11-04T01:43:01;5.20;;;3.00;;
12990;SDS011;6560;57.692;11.958;2022-11-04T01:45:26;7.47;;;3.80;;
12990;SDS011;6560;57.692;11.958;2022-11-04T01:50:21;9.07;;;3.50;;
12990;SDS011;6560;57.692;11.958;2022-11-04T01:55:30;5.77;;;3.20;;
12990;SDS011;6560;57.692;11.958;2022-11-04T01:58:00;8.53;;;3.20;;
12990;SDS011;6560;57.692;11.958;2022-11-04T02:00:28;16.33;;;4.27;;
12990;SDS011;6560;57.692;11.958;2022-11-04T02:03:05;5.80;;;3.33;;
12990;SDS011;6560;57.692;11.958;2022-11-04T02:05:33;10.00;;;3.47;;
12990;SDS011;6560;57.692;11.958;2022-11-04T02:08:00;9.93;;;4.33;;
12990;SDS011;6560;57.692;11.958;2022-11-04T02:10:28;8.67;;;4.20;;
12990;SDS011;6560;57.692;11.958;2022-11-04T02:12:55;8.23;;;3.50;;
12990;SDS011;6560;57.692;11.958;2022-11-04T02:15:26;5.90;;;3.70;;
12990;SDS011;6560;57.692;11.958;2022-11-04T02:18:25;7.17;;;3.30;;
12990;SDS011;6560;57.692;11.958;2022-11-04T02:45:28;8.50;;;4.13;;
12990;SDS011;6560;57.692;11.958;2022-11-04T02:48:29;7.13;;;4.00;;
12990;SDS011;6560;57.692;11.958;2022-11-04T02:51:21;6.17;;;3.73;;
12990;SDS011;6560;57.692;11.958;2022-11-04T02:54:04;9.13;;;4.03;;
12990;SDS011;6560;57.692;11.958;2022-11-04T02:56:33;8.93;;;3.80;;
12990;SDS011;6560;57.692;11.958;2022-11-04T02:59:04;5.87;;;4.03;;
12990;SDS011;6560;57.692;11.958;2022-11-04T03:01:35;10.67;;;4.87;;
12990;SDS011;6560;57.692;11.958;2022-11-04T03:04:06;7.93;;;4.83;;
12990;SDS011;6560;57.692;11.958;2022-11-04T03:06:36;8.67;;;4.77;;
12990;SDS011;6560;57.692;11.958;2022-11-04T03:09:02;13.33;;;4.47;;
12990;SDS011;6560;57.692;11.958;2022-11-04T03:11:29;6.60;;;4.83;;
12990;SDS011;6560;57.692;11.958;2022-11-04T03:14:00;8.57;;;4.30;;
12990;SDS011;6560;57.692;11.958;2022-11-04T03:16:44;7.33;;;5.00;;
12990;SDS011;6560;57.692;11.958;2022-11-04T03:22:12;9.97;;;5.47;;
12990;SDS011;6560;57.692;11.958;2022-11-04T03:24:43;10.00;;;5.97;;
12990;SDS011;6560;57.692;11.958;2022-11-04T03:27:18;9.27;;;5.60;;
12990;SDS011;6560;57.692;11.958;2022-11-04T03:32:23;7.33;;;4.90;;
12990;SDS011;6560;57.692;11.958;2022-11-04T03:35:11;13.10;;;4.90;;
12990;SDS011;6560;57.692;11.958;2022-11-04T03:37:40;9.07;;;5.57;;
12990;SDS011;6560;57.692;11.958;2022-11-04T03:40:06;9.40;;;5.13;;
12990;SDS011;6560;57.692;11.958;2022-11-04T03:42:33;11.27;;;6.30;;
12990;SDS011;6560;57.692;11.958;2022-11-04T03:45:04;12.80;;;5.50;;
12990;SDS011;6560;57.692;11.958;2022-11-04T03:47:30;9.53;;;5.13;;
12990;SDS011;6560;57.692;11.958;2022-11-04T03:49:58;8.17;;;5.30;;
12990;SDS011;6560;57.692;11.958;2022-11-04T03:52:33;8.30;;;5.27;;
12990;SDS011;6560;57.692;11.958;2022-11-04T03:55:00;9.90;;;6.03;;
12990;SDS011;6560;57.692;11.958;2022-11-04T04:00:09;9.57;;;6.13;;
12990;SDS011;6560;57.692;11.958;2022-11-04T04:16:28;9.90;;;6.80;;
12990;SDS011;6560;57.692;11.958;2022-11-04T04:21:29;13.60;;;6.60;;
12990;SDS011;6560;57.692;11.958;2022-11-04T04:23:59;15.13;;;6.40;;
12990;SDS011;6560;57.692;11.958;2022-11-04T04:26:47;12.80;;;7.23;;
12990;SDS011;6560;57.692;11.958;2022-11-04T04:29:32;11.87;;;6.47;;
12990;SDS011;6560;57.692;11.958;2022-11-04T04:32:00;10.40;;;6.63;;
12990;SDS011;6560;57.692;11.958;2022-11-04T04:34:29;11.07;;;5.93;;
12990;SDS011;6560;57.692;11.958;2022-11-04T04:39:26;12.70;;;5.63;;
12990;SDS011;6560;57.692;11.958;2022-11-04T04:42:15;10.90;;;6.37;;
12990;SDS011;6560;57.692;11.958;2022-11-04T04:45:00;9.87;;;6.10;;
12990;SDS011;6560;57.692;11.958;2022-11-04T04:47:32;13.40;;;7.27;;
12990;SDS011;6560;57.692;11.958;2022-11-04T04:50:02;9.73;;;6.63;;
12990;SDS011;6560;57.692;11.958;2022-11-04T04:52:38;11.00;;;6.83;;
12990;SDS011;6560;57.692;11.958;2022-11-04T04:55:06;13.40;;;6.07;;
12990;SDS011;6560;57.692;11.958;2022-11-04T04:57:31;12.63;;;5.73;;
12990;SDS011;6560;57.692;11.958;2022-11-04T04:59:57;11.13;;;7.00;;
12990;SDS011;6560;57.692;11.958;2022-11-04T05:02:22;12.87;;;6.40;;
12990;SDS011;6560;57.692;11.958;2022-11-04T05:04:48;14.20;;;6.23;;
12990;SDS011;6560;57.692;11.958;2022-11-04T05:07:13;9.53;;;5.57;;
12990;SDS011;6560;57.692;11.958;2022-11-04T05:09:39;10.90;;;6.17;;
12990;SDS011;6560;57.692;11.958;2022-11-04T05:12:05;9.13;;;5.67;;
12990;SDS011;6560;57.692;11.958;2022-11-04T05:14:30;14.63;;;7.07;;
12990;SDS011;6560;57.692;11.958;2022-11-04T05:16:55;10.00;;;6.00;;
12990;SDS011;6560;57.692;11.958;2022-11-04T05:19:21;10.93;;;6.53;;
12990;SDS011;6560;57.692;11.958;2022-11-04T05:21:47;7.30;;;4.90;;
12990;SDS011;6560;57.692;11.958;2022-11-04T05:24:12;12.53;;;6.10;;
12990;SDS011;6560;57.692;11.958;2022-11-04T05:26:37;6.57;;;5.70;;
12990;SDS011;6560;57.692;11.958;2022-11-04T05:29:03;10.47;;;5.17;;
12990;SDS011;6560;57.692;11.958;2022-11-04T05:31:29;12.07;;;6.23;;
12990;SDS011;6560;57.692;11.958;2022-11-04T05:33:54;10.00;;;5.07;;
12990;SDS011;6560;57.692;11.958;2022-11-04T05:36:20;9.23;;;5.77;;
12990;SDS011;6560;57.692;11.958;2022-11-04T05:38:50;7.77;;;5.47;;
12990;SDS011;6560;57.692;11.958;2022-11-04T05:41:17;9.17;;;5.50;;
12990;SDS011;6560;57.692;11.958;2022-11-04T05:43:59;10.13;;;5.37;;
12990;SDS011;6560;57.692;11.958;2022-11-04T05:46:26;10.17;;;5.90;;
12990;SDS011;6560;57.692;11.958;2022-11-04T05:48:52;10.23;;;5.30;;
12990;SDS011;6560;57.692;11.958;2022-11-04T05:51:20;7.97;;;5.37;;
12990;SDS011;6560;57.692;11.958;2022-11-04T05:53:47;11.87;;;5.00;;
12990;SDS011;6560;57.692;11.958;2022-11-04T05:56:13;10.87;;;5.90;;
12990;SDS011;6560;57.692;11.958;2022-11-04T05:58:38;11.03;;;5.67;;
12990;SDS011;6560;57.692;11.958;2022-11-04T06:01:21;10.70;;;6.17;;
12990;SDS011;6560;57.692;11.958;2022-11-04T06:03:49;10.83;;;5.37;;
12990;SDS011;6560;57.692;11.958;2022-11-04T06:06:15;8.03;;;5.20;;
12990;SDS011;6560;57.692;11.958;2022-11-04T06:08:40;7.20;;;5.60;;
12990;SDS011;6560;57.692;11.958;2022-11-04T06:11:06;10.50;;;6.63;;
12990;SDS011;6560;57.692;11.958;2022-11-04T06:13:31;9.97;;;5.97;;
12990;SDS011;6560;57.692;11.958;2022-11-04T06:15:57;9.20;;;5.77;;
12990;SDS011;6560;57.692;11.958;2022-11-04T06:18:22;9.43;;;5.40;;
12990;SDS011;6560;57.692;11.958;2022-11-04T06:20:48;14.97;;;6.60;;
12990;SDS011;6560;57.692;11.958;2022-11-04T06:23:13;11.60;;;6.07;;
12990;SDS011;6560;57.692;11.958;2022-11-04T06:25:39;12.70;;;7.00;;
12990;SDS011;6560;57.692;11.958;2022-11-04T06:28:05;10.87;;;5.60;;
12990;SDS011;6560;57.692;11.958;2022-11-04T06:30:30;8.30;;;5.23;;
12990;SDS011;6560;57.692;11.958;2022-11-04T06:32:56;12.77;;;6.37;;
12990;SDS011;6560;57.692;11.958;2022-11-04T06:35:22;8.10;;;5.90;;
12990;SDS011;6560;57.692;11.958;2022-11-04T06:37:47;8.77;;;6.07;;
12990;SDS011;6560;57.692;11.958;2022-11-04T06:40:12;11.10;;;6.23;;
12990;SDS011;6560;57.692;11.958;2022-11-04T06:42:38;11.53;;;6.63;;
12990;SDS011;6560;57.692;11.958;2022-11-04T06:45:04;8.70;;;5.63;;
12990;SDS011;6560;57.692;11.958;2022-11-04T06:47:30;15.10;;;6.47;;
12990;SDS011;6560;57.692;11.958;2022-11-04T06:49:55;9.43;;;5.90;;
12990;SDS011;6560;57.692;11.958;2022-11-04T06:52:21;7.30;;;6.10;;
12990;SDS011;6560;57.692;11.958;2022-11-04T06:54:46;7.83;;;5.60;;
12990;SDS011;6560;57.692;11.958;2022-11-04T06:57:12;9.43;;;5.73;;
12990;SDS011;6560;57.692;11.958;2022-11-04T06:59:37;9.13;;;6.07;;
12990;SDS011;6560;57.692;11.958;2022-11-04T07:02:03;10.60;;;7.57;;
12990;SDS011;6560;57.692;11.958;2022-11-04T07:04:29;10.57;;;6.83;;
12990;SDS011;6560;57.692;11.958;2022-11-04T07:06:54;11.73;;;5.80;;
12990;SDS011;6560;57.692;11.958;2022-11-04T07:09:20;9.30;;;6.43;;
12990;SDS011;6560;57.692;11.958;2022-11-04T07:11:45;10.00;;;5.67;;
12990;SDS011;6560;57.692;11.958;2022-11-04T07:14:11;10.00;;;5.43;;
12990;SDS011;6560;57.692;11.958;2022-11-04T07:16:37;12.60;;;6.30;;
12990;SDS011;6560;57.692;11.958;2022-11-04T07:19:03;12.67;;;6.67;;
12990;SDS011;6560;57.692;11.958;2022-11-04T07:21:29;14.70;;;7.00;;
12990;SDS011;6560;57.692;11.958;2022-11-04T07:23:55;13.37;;;7.40;;
12990;SDS011;6560;57.692;11.958;2022-11-04T07:26:21;12.67;;;6.50;;
12990;SDS011;6560;57.692;11.958;2022-11-04T07:28:46;11.20;;;6.40;;
12990;SDS011;6560;57.692;11.958;2022-11-04T07:31:12;11.83;;;7.03;;
12990;SDS011;6560;57.692;11.958;2022-11-04T07:33:38;9.00;;;6.13;;
12990;SDS011;6560;57.692;11.958;2022-11-04T07:36:04;13.33;;;6.77;;
12990;SDS011;6560;57.692;11.958;2022-11-04T07:38:31;10.87;;;7.07;;
12990;SDS011;6560;57.692;11.958;2022-11-04T07:40:57;7.97;;;5.93;;
12990;SDS011;6560;57.692;11.958;2022-11-04T07:43:23;11.43;;;6.33;;
12990;SDS011;6560;57.692;11.958;2022-11-04T07:45:58;13.57;;;7.03;;
12990;SDS011;6560;57.692;11.958;2022-11-04T07:48:28;10.80;;;6.90;;
12990;SDS011;6560;57.692;11.958;2022-11-04T07:50:54;13.70;;;6.60;;
12990;SDS011;6560;57.692;11.958;2022-11-04T07:53:21;10.50;;;6.17;;
12990;SDS011;6560;57.692;11.958;2022-11-04T07:55:47;10.37;;;6.80;;
12990;SDS011;6560;57.692;11.958;2022-11-04T07:58:15;9.27;;;5.60;;
12990;SDS011;6560;57.692;11.958;2022-11-04T08:00:41;8.23;;;6.67;;
12990;SDS011;6560;57.692;11.958;2022-11-04T08:03:06;8.20;;;7.00;;
12990;SDS011;6560;57.692;11.958;2022-11-04T08:05:32;14.07;;;6.80;;
12990;SDS011;6560;57.692;11.958;2022-11-04T08:07:57;15.07;;;8.17;;
12990;SDS011;6560;57.692;11.958;2022-11-04T08:10:23;9.30;;;7.20;;
12990;SDS011;6560;57.692;11.958;2022-11-04T08:12:49;9.17;;;6.13;;
12990;SDS011;6560;57.692;11.958;2022-11-04T08:15:15;8.93;;;6.17;;
12990;SDS011;6560;57.692;11.958;2022-11-04T08:17:41;11.70;;;6.93;;
12990;SDS011;6560;57.692;11.958;2022-11-04T08:20:06;9.40;;;6.53;;
12990;SDS011;6560;57.692;11.958;2022-11-04T08:22:33;12.20;;;7.63;;
12990;SDS011;6560;57.692;11.958;2022-11-04T08:24:59;14.97;;;7.73;;
12990;SDS011;6560;57.692;11.958;2022-11-04T08:27:24;10.83;;;7.40;;
12990;SDS011;6560;57.692;11.958;2022-11-04T08:29:50;9.10;;;7.67;;
12990;SDS011;6560;57.692;11.958;2022-11-04T08:32:16;11.83;;;6.40;;
12990;SDS011;6560;57.692;11.958;2022-11-04T08:34:42;8.83;;;6.20;;
12990;SDS011;6560;57.692;11.958;2022-11-04T08:37:07;10.53;;;7.40;;
12990;SDS011;6560;57.692;11.958;2022-11-04T08:39:33;13.63;;;8.20;;
12990;SDS011;6560;57.692;11.958;2022-11-04T08:41:58;12.70;;;7.17;;
12990;SDS011;6560;57.692;11.958;2022-11-04T08:44:24;13.10;;;6.70;;
12990;SDS011;6560;57.692;11.958;2022-11-04T08:46:49;10.97;;;7.77;;
12990;SDS011;6560;57.692;11.958;2022-11-04T08:49:15;13.93;;;7.17;;
12990;SDS011;6560;57.692;11.958;2022-11-04T08:51:41;11.97;;;7.60;;
12990;SDS011;6560;57.692;11.958;2022-11-04T08:54:08;10.07;;;6.73;;
12990;SDS011;6560;57.692;11.958;2022-11-04T08:56:35;10.53;;;7.67;;
12990;SDS011;6560;57.692;11.958;2022-11-04T08:59:03;13.13;;;8.30;;
12990;SDS011;6560;57.692;11.958;2022-11-04T09:01:30;14.10;;;7.53;;
12990;SDS011;6560;57.692;11.958;2022-11-04T09:03:57;9.60;;;6.80;;
12990;SDS011;6560;57.692;11.958;2022-11-04T09:06:24;17.00;;;9.03;;
12990;SDS011;6560;57.692;11.958;2022-11-04T09:08:52;12.17;;;8.03;;
12990;SDS011;6560;57.692;11.958;2022-11-04T09:11:21;11.87;;;7.60;;
12990;SDS011;6560;57.692;11.958;2022-11-04T09:13:48;10.07;;;7.23;;
12990;SDS011;6560;57.692;11.958;2022-11-04T09:16:14;13.47;;;8.03;;
12990;SDS011;6560;57.692;11.958;2022-11-04T09:18:40;12.93;;;7.93;;
12990;SDS011;6560;57.692;11.958;2022-11-04T09:21:06;14.93;;;9.40;;
12990;SDS011;6560;57.692;11.958;2022-11-04T09:23:33;11.73;;;6.80;;
12990;SDS011;6560;57.692;11.958;2022-11-04T09:26:03;10.07;;;6.97;;
12990;SDS011;6560;57.692;11.958;2022-11-04T09:28:30;13.20;;;7.30;;
12990;SDS011;6560;57.692;11.958;2022-11-04T09:30:56;11.03;;;7.43;;
12990;SDS011;6560;57.692;11.958;2022-11-04T09:33:22;12.47;;;7.47;;
12990;SDS011;6560;57.692;11.958;2022-11-04T09:35:54;10.90;;;8.67;;
12990;SDS011;6560;57.692;11.958;2022-11-04T09:38:20;16.23;;;7.80;;
12990;SDS011;6560;57.692;11.958;2022-11-04T09:40:46;13.20;;;7.33;;
12990;SDS011;6560;57.692;11.958;2022-11-04T09:45:46;10.30;;;6.90;;
12990;SDS011;6560;57.692;11.958;2022-11-04T09:48:13;10.90;;;7.70;;
12990;SDS011;6560;57.692;11.958;2022-11-04T09:50:47;12.77;;;8.07;;
12990;SDS011;6560;57.692;11.958;2022-11-04T09:53:18;10.50;;;6.83;;
12990;SDS011;6560;57.692;11.958;2022-11-04T09:58:21;11.83;;;7.27;;
12990;SDS011;6560;57.692;11.958;2022-11-04T10:06:29;9.13;;;7.03;;
12990;SDS011;6560;57.692;11.958;2022-11-04T10:22:32;13.40;;;7.80;;
12990;SDS011;6560;57.692;11.958;2022-11-04T10:27:45;8.77;;;6.10;;
12990;SDS011;6560;57.692;11.958;2022-11-04T10:30:19;9.73;;;6.37;;
12990;SDS011;6560;57.692;11.958;2022-11-04T10:35:34;9.83;;;7.13;;
12990;SDS011;6560;57.692;11.958;2022-11-04T10:43:44;9.90;;;7.23;;
12990;SDS011;6560;57.692;11.958;2022-11-04T10:51:28;9.10;;;6.57;;
12990;SDS011;6560;57.692;11.958;2022-11-04T10:53:57;12.30;;;7.73;;
12990;SDS011;6560;57.692;11.958;2022-11-04T10:58:53;9.50;;;6.13;;
12990;SDS011;6560;57.692;11.958;2022-11-04T11:01:30;12.10;;;6.97;;
12990;SDS011;6560;57.692;11.958;2022-11-04T11:03:57;12.87;;;7.80;;
12990;SDS011;6560;57.692;11.958;2022-11-04T11:06:25;11.87;;;7.43;;
12990;SDS011;6560;57.692;11.958;2022-11-04T11:09:20;10.03;;;7.07;;
12990;SDS011;6560;57.692;11.958;2022-11-04T11:11:53;12.73;;;6.80;;
12990;SDS011;6560;57.692;11.958;2022-11-04T11:16:53;11.90;;;7.63;;
12990;SDS011;6560;57.692;11.958;2022-11-04T11:19:23;10.03;;;6.70;;
12990;SDS011;6560;57.692;11.958;2022-11-04T11:21:50;11.85;;;7.03;;
12990;SDS011;6560;57.692;11.958;2022-11-04T11:24:21;9.53;;;6.50;;
12990;SDS011;6560;57.692;11.958;2022-11-04T11:26:48;10.07;;;6.20;;
12990;SDS011;6560;57.692;11.958;2022-11-04T11:29:21;10.80;;;6.47;;
12990;SDS011;6560;57.692;11.958;2022-11-04T11:31:49;8.73;;;6.40;;
12990;SDS011;6560;57.692;11.958;2022-11-04T11:34:32;12.03;;;7.23;;
12990;SDS011;6560;57.692;11.958;2022-11-04T11:37:02;11.47;;;6.97;;
12990;SDS011;6560;57.692;11.958;2022-11-04T11:39:30;10.93;;;7.07;;
12990;SDS011;6560;57.692;11.958;2022-11-04T11:42:04;10.37;;;6.33;;
12990;SDS011;6560;57.692;11.958;2022-11-04T11:44:35;12.47;;;8.17;;
12990;SDS011;6560;57.692;11.958;2022-11-04T11:47:33;12.73;;;8.70;;
12990;SDS011;6560;57.692;11.958;2022-11-04T11:50:19;11.03;;;7.83;;
12990;SDS011;6560;57.692;11.958;2022-11-04T11:53:06;15.57;;;8.80;;
12990;SDS011;6560;57.692;11.958;2022-11-04T11:55:38;13.10;;;8.77;;
12990;SDS011;6560;57.692;11.958;2022-11-04T12:01:41;11.43;;;7.47;;
12990;SDS011;6560;57.692;11.958;2022-11-04T12:04:14;14.27;;;9.40;;
12990;SDS011;6560;57.692;11.958;2022-11-04T12:09:33;11.50;;;8.93;;
12990;SDS011;6560;57.692;11.958;2022-11-04T12:12:13;13.40;;;9.40;;
12990;SDS011;6560;57.692;11.958;2022-11-04T12:25:46;13.10;;;10.77;;
12990;SDS011;6560;57.692;11.958;2022-11-04T12:31:29;13.50;;;11.60;;
12990;SDS011;6560;57.692;11.958;2022-11-04T12:44:32;19.03;;;12.73;;
12990;SDS011;6560;57.692;11.958;2022-11-04T12:50:05;22.03;;;14.13;;
12990;SDS011;6560;57.692;11.958;2022-11-04T13:01:07;17.87;;;13.93;;
12990;SDS011;6560;57.692;11.958;2022-11-04T13:06:25;19.40;;;13.50;;
12990;SDS011;6560;57.692;11.958;2022-11-04T13:14:17;17.77;;;14.23;;
12990;SDS011;6560;57.692;11.958;2022-11-04T13:16:53;17.70;;;14.20;;
12990;SDS011;6560;57.692;11.958;2022-11-04T13:19:28;17.80;;;13.27;;
12990;SDS011;6560;57.692;11.958;2022-11-04T13:22:02;19.63;;;13.50;;
12990;SDS011;6560;57.692;11.958;2022-11-04T13:24:32;17.97;;;13.53;;
12990;SDS011;6560;57.692;11.958;2022-11-04T13:27:03;18.13;;;13.03;;
12990;SDS011;6560;57.692;11.958;2022-11-04T13:29:38;18.60;;;13.90;;
12990;SDS011;6560;57.692;11.958;2022-11-04T13:32:07;17.20;;;13.93;;
12990;SDS011;6560;57.692;11.958;2022-11-04T13:37:37;19.20;;;13.80;;
12990;SDS011;6560;57.692;11.958;2022-11-04T13:40:12;15.57;;;12.97;;
12990;SDS011;6560;57.692;11.958;2022-11-04T13:46:03;15.93;;;13.00;;
12990;SDS011;6560;57.692;11.958;2022-11-04T13:51:32;16.40;;;14.23;;
12990;SDS011;6560;57.692;11.958;2022-11-04T13:54:02;17.30;;;13.83;;
12990;SDS011;6560;57.692;11.958;2022-11-04T13:56:35;18.00;;;14.83;;
12990;SDS011;6560;57.692;11.958;2022-11-04T13:59:16;21.20;;;14.40;;
12990;SDS011;6560;57.692;11.958;2022-11-04T14:01:48;16.40;;;14.23;;
12990;SDS011;6560;57.692;11.958;2022-11-04T14:04:43;22.27;;;15.20;;
12990;SDS011;6560;57.692;11.958;2022-11-04T14:07:12;18.17;;;15.57;;
12990;SDS011;6560;57.692;11.958;2022-11-04T14:14:51;21.90;;;15.73;;
12990;SDS011;6560;57.692;11.958;2022-11-04T14:20:00;26.47;;;17.30;;
12990;SDS011;6560;57.692;11.958;2022-11-04T14:22:54;24.60;;;18.00;;
12990;SDS011;6560;57.692;11.958;2022-11-04T14:27:56;22.00;;;17.27;;
12990;SDS011;6560;57.692;11.958;2022-11-04T14:44:18;24.60;;;18.10;;
12990;SDS011;6560;57.692;11.958;2022-11-04T14:46:46;23.63;;;17.57;;
12990;SDS011;6560;57.692;11.958;2022-11-04T14:52:15;23.93;;;17.97;;
12990;SDS011;6560;57.692;11.958;2022-11-04T14:54:47;27.47;;;19.17;;
12990;SDS011;6560;57.692;11.958;2022-11-04T14:57:14;25.00;;;19.27;;
12990;SDS011;6560;57.692;11.958;2022-11-04T14:59:41;21.43;;;19.20;;
12990;SDS011;6560;57.692;11.958;2022-11-04T15:02:11;27.43;;;17.83;;
12990;SDS011;6560;57.692;11.958;2022-11-04T15:04:44;28.77;;;18.90;;
12990;SDS011;6560;57.692;11.958;2022-11-04T15:07:32;28.40;;;18.03;;
12990;SDS011;6560;57.692;11.958;2022-11-04T15:10:13;25.33;;;17.70;;
12990;SDS011;6560;57.692;11.958;2022-11-04T15:12:44;22.20;;;17.17;;
12990;SDS011;6560;57.692;11.958;2022-11-04T15:18:08;21.00;;;16.67;;
12990;SDS011;6560;57.692;11.958;2022-11-04T15:20:51;20.70;;;17.50;;
12990;SDS011;6560;57.692;11.958;2022-11-04T15:23:28;21.77;;;17.13;;
12990;SDS011;6560;57.692;11.958;2022-11-04T15:25:56;21.23;;;17.03;;
12990;SDS011;6560;57.692;11.958;2022-11-04T15:28:24;21.10;;;16.83;;
12990;SDS011;6560;57.692;11.958;2022-11-04T15:30:56;18.87;;;15.90;;
12990;SDS011;6560;57.692;11.958;2022-11-04T15:33:24;17.97;;;15.07;;
12990;SDS011;6560;57.692;11.958;2022-11-04T15:35:51;21.87;;;15.27;;
12990;SDS011;6560;57.692;11.958;2022-11-04T15:38:17;17.07;;;15.27;;
12990;SDS011;6560;57.692;11.958;2022-11-04T15:40:43;20.87;;;15.70;;
12990;SDS011;6560;57.692;11.958;2022-11-04T15:43:09;22.53;;;15.33;;
12990;SDS011;6560;57.692;11.958;2022-11-04T15:45:47;18.53;;;14.30;;
12990;SDS011;6560;57.692;11.958;2022-11-04T15:48:23;22.37;;;15.00;;
12990;SDS011;6560;57.692;11.958;2022-11-04T15:53:33;17.23;;;12.60;;
12990;SDS011;6560;57.692;11.958;2022-11-04T15:56:12;18.33;;;12.60;;
12990;SDS011;6560;57.692;11.958;2022-11-04T15:58:40;16.13;;;12.93;;
12990;SDS011;6560;57.692;11.958;2022-11-04T16:01:08;15.77;;;11.87;;
12990;SDS011;6560;57.692;11.958;2022-11-04T16:03:38;14.60;;;10.03;;
12990;SDS011;6560;57.692;11.958;2022-11-04T16:06:06;16.43;;;12.03;;
12990;SDS011;6560;57.692;11.958;2022-11-04T16:08:33;15.50;;;11.13;;
12990;SDS011;6560;57.692;11.958;2022-11-04T16:13:43;16.37;;;10.87;;
12990;SDS011;6560;57.692;11.958;2022-11-04T16:18:48;14.47;;;11.13;;
12990;SDS011;6560;57.692;11.958;2022-11-04T16:23:53;14.10;;;11.93;;
12990;SDS011;6560;57.692;11.958;2022-11-04T16:26:35;12.27;;;10.13;;
12990;SDS011;6560;57.692;11.958;2022-11-04T16:29:08;16.10;;;11.53;;
12990;SDS011;6560;57.692;11.958;2022-11-04T16:31:37;14.07;;;11.13;;
12990;SDS011;6560;57.692;11.958;2022-11-04T16:34:07;15.43;;;10.60;;
12990;SDS011;6560;57.692;11.958;2022-11-04T16:36:37;12.43;;;10.30;;
12990;SDS011;6560;57.692;11.958;2022-11-04T16:39:03;12.63;;;10.77;;
12990;SDS011;6560;57.692;11.958;2022-11-04T16:41:33;13.73;;;10.00;;
12990;SDS011;6560;57.692;11.958;2022-11-04T16:44:02;15.23;;;10.67;;
12990;SDS011;6560;57.692;11.958;2022-11-04T16:46:29;16.23;;;10.10;;
12990;SDS011;6560;57.692;11.958;2022-11-04T16:48:56;13.87;;;10.03;;
12990;SDS011;6560;57.692;11.958;2022-11-04T16:51:22;12.07;;;10.50;;
12990;SDS011;6560;57.692;11.958;2022-11-04T16:53:51;12.27;;;9.37;;
12990;SDS011;6560;57.692;11.958;2022-11-04T16:56:22;11.27;;;9.20;;
12990;SDS011;6560;57.692;11.958;2022-11-04T16:58:49;14.53;;;10.07;;
12990;SDS011;6560;57.692;11.958;2022-11-04T17:01:15;11.37;;;8.67;;
12990;SDS011;6560;57.692;11.958;2022-11-04T17:03:42;15.07;;;9.80;;
12990;SDS011;6560;57.692;11.958;2022-11-04T17:06:08;15.53;;;9.60;;
12990;SDS011;6560;57.692;11.958;2022-11-04T17:08:35;12.73;;;9.13;;
12990;SDS011;6560;57.692;11.958;2022-11-04T17:11:00;11.53;;;9.40;;
12990;SDS011;6560;57.692;11.958;2022-11-04T17:13:26;11.77;;;8.57;;
12990;SDS011;6560;57.692;11.958;2022-11-04T17:15:51;11.60;;;8.30;;
12990;SDS011;6560;57.692;11.958;2022-11-04T17:18:18;10.53;;;7.57;;
12990;SDS011;6560;57.692;11.958;2022-11-04T17:20:44;12.27;;;8.97;;
12990;SDS011;6560;57.692;11.958;2022-11-04T17:23:13;12.57;;;8.90;;
12990;SDS011;6560;57.692;11.958;2022-11-04T17:25:40;12.30;;;8.40;;
12990;SDS011;6560;57.692;11.958;2022-11-04T17:28:06;11.03;;;8.47;;
12990;SDS011;6560;57.692;11.958;2022-11-04T17:30:32;9.10;;;7.80;;
12990;SDS011;6560;57.692;11.958;2022-11-04T17:32:57;11.53;;;7.97;;
12990;SDS011;6560;57.692;11.958;2022-11-04T17:35:24;15.27;;;8.43;;
12990;SDS011;6560;57.692;11.958;2022-11-04T17:37:53;9.90;;;8.13;;
12990;SDS011;6560;57.692;11.958;2022-11-04T17:40:20;10.77;;;8.20;;
12990;SDS011;6560;57.692;11.958;2022-11-04T17:42:47;8.97;;;8.00;;
12990;SDS011;6560;57.692;11.958;2022-11-04T17:45:31;10.57;;;8.00;;
12990;SDS011;6560;57.692;11.958;2022-11-04T17:48:00;9.23;;;7.37;;
12990;SDS011;6560;57.692;11.958;2022-11-04T17:50:27;9.60;;;8.07;;
12990;SDS011;6560;57.692;11.958;2022-11-04T17:52:53;10.13;;;8.23;;
12990;SDS011;6560;57.692;11.958;2022-11-04T17:55:19;15.77;;;7.10;;
12990;SDS011;6560;57.692;11.958;2022-11-04T17:57:44;11.47;;;7.23;;
12990;SDS011;6560;57.692;11.958;2022-11-04T18:00:10;9.20;;;7.60;;
12990;SDS011;6560;57.692;11.958;2022-11-04T18:02:38;10.07;;;7.30;;
12990;SDS011;6560;57.692;11.958;2022-11-04T18:05:04;8.07;;;6.23;;
12990;SDS011;6560;57.692;11.958;2022-11-04T18:07:31;8.33;;;6.57;;
12990;SDS011;6560;57.692;11.958;2022-11-04T18:09:58;11.23;;;6.77;;
12990;SDS011;6560;57.692;11.958;2022-11-04T18:12:23;7.80;;;5.53;;